Time;durP1;ratioP1;P1;durP2;ratioP2;P2;SDS_P1;SDS_P2;PMS_P1;PMS_P2;Temp;Humidity;BMP_temperature;BMP_pressure;BME280_temperature;BME280_humidity;BME280_pressure;Samples;Min_cycle;Max_cycle;Signal;HPM_P1;HPM_P2
2023/08/07 00:01:58;;;;;;;7.70;4.13;;;15.20;87.90;;;;;;5007944;28;20254;-73
2023/08/07 00:04:25;;;;;;;8.18;3.70;;;15.20;87.80;;;;;;4990413;28;20051;-72
2023/08/07 00:06:53;;;;;;;6.40;3.40;;;15.20;88.00;;;;;;5006339;28;20413;-72
2023/08/07 00:09:21;;;;;;;7.97;3.97;;;15.20;87.90;;;;;;5007950;28;20054;-72
2023/08/07 00:11:48;;;;;;;10.00;4.20;;;15.20;87.80;;;;;;4989578;28;20056;-72
2023/08/07 00:14:15;;;;;;;7.57;3.85;;;15.20;87.80;;;;;;5008160;28;20257;-72
2023/08/07 00:16:43;;;;;;;7.15;3.60;;;15.20;87.80;;;;;;5008369;28;20057;-73
2023/08/07 00:19:10;;;;;;;7.38;3.20;;;15.20;87.90;;;;;;5007913;28;20516;-73
2023/08/07 00:21:37;;;;;;;6.63;3.63;;;15.20;87.90;;;;;;4986949;28;20097;-72
2023/08/07 00:24:06;;;;;;;7.50;3.13;;;15.10;87.90;;;;;;5000436;28;20507;-72
2023/08/07 00:26:33;;;;;;;6.10;3.25;;;15.20;88.00;;;;;;5011473;28;20272;-73
2023/08/07 00:29:00;;;;;;;7.68;3.40;;;15.10;88.00;;;;;;4993382;28;20053;-72
2023/08/07 00:31:30;;;;;;;6.53;3.10;;;15.10;88.00;;;;;;4992674;28;20197;-72
2023/08/07 00:33:58;;;;;;;6.57;2.70;;;15.10;88.00;;;;;;4992781;28;20607;-72
2023/08/07 00:36:25;;;;;;;6.53;2.60;;;15.10;88.00;;;;;;4992957;28;20670;-72
2023/08/07 00:38:52;;;;;;;7.13;2.95;;;15.10;88.00;;;;;;4993089;28;20254;-72
2023/08/07 00:41:21;;;;;;;5.22;2.90;;;15.10;88.00;;;;;;4992623;28;20050;-72
2023/08/07 00:43:48;;;;;;;5.65;2.65;;;15.10;88.00;;;;;;4977781;28;20154;-72
2023/08/07 00:46:15;;;;;;;9.48;3.30;;;15.00;88.00;;;;;;5012575;28;20064;-72
2023/08/07 00:48:42;;;;;;;7.50;2.63;;;15.00;88.00;;;;;;4996042;28;20128;-73
2023/08/07 00:51:10;;;;;;;5.40;2.50;;;15.10;88.20;;;;;;5013794;28;20286;-72
2023/08/07 00:53:39;;;;;;;3.58;1.33;;;15.00;88.20;;;;;;4976675;28;20061;-72
2023/08/07 00:59:19;;;;;;;6.78;2.40;;;15.10;88.20;;;;;;5008111;28;20506;-72
2023/08/07 01:01:46;;;;;;;5.33;2.40;;;15.10;88.10;;;;;;4990020;28;20543;-73
2023/08/07 01:04:13;;;;;;;5.60;2.00;;;15.00;88.00;;;;;;5022185;28;20334;-72
2023/08/07 01:06:42;;;;;;;5.38;2.10;;;15.10;88.10;;;;;;5001203;28;20054;-72
2023/08/07 01:09:08;;;;;;;5.45;2.00;;;15.10;88.10;;;;;;5008340;28;20125;-73
2023/08/07 01:11:43;;;;;;;7.22;2.47;;;15.10;88.00;;;;;;4997357;28;20106;-73
2023/08/07 01:14:20;;;;;;;4.23;2.00;;;15.10;87.80;;;;;;4977195;28;20081;-73
2023/08/07 01:16:58;;;;;;;5.00;2.15;;;15.10;88.00;;;;;;4992257;28;20262;-72
2023/08/07 01:19:27;;;;;;;6.97;2.40;;;15.10;87.90;;;;;;5001887;28;20259;-72
2023/08/07 01:22:07;;;;;;;6.90;2.40;;;15.10;87.90;;;;;;4988640;28;20143;-72
2023/08/07 01:24:36;;;;;;;5.10;1.95;;;15.00;87.90;;;;;;5004848;28;20181;-72
2023/08/07 01:27:15;;;;;;;5.73;2.33;;;15.00;88.00;;;;;;5008615;28;20165;-73
2023/08/07 01:29:49;;;;;;;4.95;1.50;;;15.00;87.90;;;;;;5008232;28;20761;-73
2023/08/07 01:32:21;;;;;;;5.05;1.83;;;15.00;88.20;;;;;;5007897;28;20078;-72
2023/08/07 01:34:50;;;;;;;6.57;2.22;;;15.00;88.00;;;;;;5008788;28;20149;-73
2023/08/07 01:37:19;;;;;;;7.05;2.00;;;15.00;88.00;;;;;;4991991;28;20055;-73
2023/08/07 01:39:49;;;;;;;6.10;1.50;;;15.00;87.90;;;;;;4986689;28;20055;-73
2023/08/07 01:42:16;;;;;;;4.72;1.42;;;15.00;88.00;;;;;;5004757;28;20346;-72
2023/08/07 01:44:43;;;;;;;6.70;1.40;;;15.00;87.80;;;;;;5006201;28;20698;-72
2023/08/07 01:47:10;;;;;;;6.68;1.63;;;15.00;87.80;;;;;;4990266;28;20509;-73
2023/08/07 01:49:38;;;;;;;7.13;1.45;;;15.00;87.80;;;;;;4989991;28;20105;-73
2023/08/07 01:52:07;;;;;;;5.27;1.30;;;15.00;87.80;;;;;;5022899;28;20050;-73
2023/08/07 01:54:36;;;;;;;6.47;1.80;;;15.00;87.80;;;;;;5023017;28;20345;-73
2023/08/07 01:57:03;;;;;;;7.53;1.75;;;15.00;87.70;;;;;;5004431;28;20050;-73
2023/08/07 01:59:30;;;;;;;6.60;1.50;;;15.00;87.80;;;;;;5006738;28;20477;-72
2023/08/07 02:01:57;;;;;;;6.40;1.58;;;14.90;87.70;;;;;;4990703;28;20069;-73
2023/08/07 02:04:24;;;;;;;5.30;1.17;;;15.00;87.70;;;;;;5007742;28;20468;-72
2023/08/07 02:06:51;;;;;;;8.75;1.38;;;14.90;87.60;;;;;;5001477;28;20279;-73
2023/08/07 02:09:20;;;;;;;3.50;0.73;;;14.90;87.60;;;;;;4988391;28;20054;-73
2023/08/07 02:11:48;;;;;;;6.70;1.15;;;14.90;87.50;;;;;;4988119;28;20051;-72
2023/08/07 02:14:15;;;;;;;6.68;1.42;;;14.90;87.50;;;;;;4993584;28;20145;-73
2023/08/07 02:16:42;;;;;;;5.80;1.40;;;14.90;87.50;;;;;;5005182;28;20121;-73
2023/08/07 02:19:09;;;;;;;6.93;1.33;;;14.90;87.30;;;;;;5024713;28;20265;-73
2023/08/07 02:21:36;;;;;;;6.10;1.70;;;14.80;87.30;;;;;;5006857;28;20050;-72
2023/08/07 02:24:03;;;;;;;7.03;1.48;;;14.80;87.20;;;;;;5007446;28;20544;-73
2023/08/07 02:26:30;;;;;;;7.03;1.50;;;14.80;87.20;;;;;;5007693;28;20059;-73
2023/08/07 02:28:58;;;;;;;8.73;1.53;;;14.70;87.20;;;;;;4991205;28;20476;-73
2023/08/07 02:31:25;;;;;;;6.90;1.08;;;14.70;87.20;;;;;;4990698;28;20828;-73
2023/08/07 02:33:52;;;;;;;6.63;1.48;;;14.70;87.30;;;;;;4983885;28;20154;-73
2023/08/07 02:36:19;;;;;;;7.32;1.25;;;14.70;87.30;;;;;;4987911;28;20564;-73
2023/08/07 02:38:46;;;;;;;6.40;1.33;;;14.70;87.30;;;;;;4993163;28;20054;-72
2023/08/07 02:41:13;;;;;;;4.97;1.40;;;14.60;87.30;;;;;;4990302;28;20089;-72
2023/08/07 02:43:40;;;;;;;8.88;1.80;;;14.60;87.50;;;;;;5008856;28;20262;-72
2023/08/07 02:46:08;;;;;;;5.05;1.40;;;14.50;87.50;;;;;;5008727;28;20691;-71
2023/08/07 02:48:35;;;;;;;6.75;1.52;;;14.50;87.50;;;;;;5008703;28;20054;-73
2023/08/07 02:51:02;;;;;;;8.15;1.50;;;14.50;87.70;;;;;;5007275;28;20507;-72
2023/08/07 02:53:29;;;;;;;6.57;1.50;;;14.50;87.70;;;;;;5014634;28;20078;-72
2023/08/07 02:55:55;;;;;;;6.32;1.52;;;14.40;87.70;;;;;;4991108;28;20286;-72
2023/08/07 02:58:22;;;;;;;7.30;1.52;;;14.40;87.90;;;;;;5006831;28;20452;-73
2023/08/07 03:00:49;;;;;;;7.57;1.48;;;14.40;87.90;;;;;;5006282;28;20061;-73
2023/08/07 03:03:18;;;;;;;9.27;1.45;;;14.40;88.00;;;;;;5011893;28;20473;-73
2023/08/07 03:05:50;;;;;;;8.50;1.60;;;14.40;88.00;;;;;;4988147;28;20412;-72
2023/08/07 03:08:17;;;;;;;7.55;1.40;;;14.30;88.10;;;;;;4988987;28;20265;-73
2023/08/07 03:10:50;;;;;;;7.15;1.20;;;14.30;88.30;;;;;;4984729;28;20074;-72
2023/08/07 03:13:17;;;;;;;8.10;1.52;;;14.30;88.30;;;;;;4989200;28;20134;-72
2023/08/07 03:15:44;;;;;;;7.88;1.40;;;14.30;88.60;;;;;;5004702;28;20054;-73
2023/08/07 03:18:10;;;;;;;7.07;1.50;;;14.30;88.50;;;;;;4991074;28;20149;-72
2023/08/07 03:20:39;;;;;;;6.32;1.33;;;14.30;88.60;;;;;;5008057;28;20266;-73
2023/08/07 03:23:06;;;;;;;6.93;1.30;;;14.30;88.90;;;;;;4989301;28;20134;-73
2023/08/07 03:25:33;;;;;;;6.10;1.00;;;14.30;88.80;;;;;;4990406;28;20046;-73
2023/08/07 03:28:00;;;;;;;9.40;1.60;;;14.30;88.80;;;;;;5007072;28;20529;-73
2023/08/07 03:30:27;;;;;;;9.33;1.40;;;14.30;88.90;;;;;;5020760;28;20057;-73
2023/08/07 03:32:54;;;;;;;9.13;1.17;;;14.30;88.90;;;;;;5004067;28;20703;-72
2023/08/07 03:35:21;;;;;;;8.88;1.20;;;14.30;88.90;;;;;;4970848;28;20077;-73
2023/08/07 03:37:50;;;;;;;9.50;0.93;;;14.30;88.90;;;;;;4988876;28;20051;-72
2023/08/07 03:40:17;;;;;;;6.85;1.25;;;14.20;89.00;;;;;;4989778;28;20047;-72
2023/08/07 03:42:44;;;;;;;7.20;1.30;;;14.20;89.00;;;;;;4972911;28;20055;-73
2023/08/07 03:45:12;;;;;;;9.23;1.63;;;14.20;89.00;;;;;;4987156;28;20270;-72
2023/08/07 03:47:39;;;;;;;8.50;1.10;;;14.30;89.30;;;;;;4986617;28;20436;-72
2023/08/07 03:50:07;;;;;;;8.50;1.38;;;14.30;89.50;;;;;;5005237;28;20054;-72
2023/08/07 03:52:35;;;;;;;7.30;1.33;;;14.30;89.70;;;;;;5006086;28;20133;-72
2023/08/07 03:55:03;;;;;;;8.07;1.20;;;14.30;89.70;;;;;;5006394;28;20061;-73
2023/08/07 03:57:30;;;;;;;4.13;1.00;;;14.30;89.70;;;;;;5008335;28;20337;-72
2023/08/07 03:59:57;;;;;;;5.57;0.80;;;14.30;89.80;;;;;;5007365;28;20145;-73
2023/08/07 04:02:25;;;;;;;5.05;0.95;;;14.30;89.60;;;;;;4973320;28;20138;-73
2023/08/07 04:04:52;;;;;;;6.15;1.23;;;14.30;89.80;;;;;;4990028;28;20057;-73
2023/08/07 04:07:19;;;;;;;6.53;1.50;;;14.30;89.80;;;;;;4988347;28;20069;-72
2023/08/07 04:09:46;;;;;;;8.20;1.52;;;14.30;89.80;;;;;;4973915;28;20851;-73
2023/08/07 04:12:14;;;;;;;6.50;1.17;;;14.40;89.90;;;;;;4989047;28;20298;-72
2023/08/07 04:14:41;;;;;;;6.22;1.65;;;14.40;90.00;;;;;;4988318;28;20060;-72
2023/08/07 04:17:08;;;;;;;6.35;1.40;;;14.40;89.90;;;;;;5009401;28;20527;-72
2023/08/07 04:19:35;;;;;;;4.73;1.00;;;14.40;90.00;;;;;;5009532;28;20057;-71
2023/08/07 04:22:02;;;;;;;9.32;1.65;;;14.50;90.00;;;;;;5008872;28;20337;-72
2023/08/07 04:24:29;;;;;;;7.00;1.70;;;14.50;90.10;;;;;;4992814;28;20130;-72
2023/08/07 04:26:56;;;;;;;6.03;1.58;;;14.50;90.00;;;;;;4990471;28;20108;-72
2023/08/07 04:29:25;;;;;;;5.05;1.40;;;14.50;90.00;;;;;;5009600;28;20504;-72
2023/08/07 04:31:52;;;;;;;5.43;1.50;;;14.50;90.00;;;;;;5009461;28;20055;-73
2023/08/07 04:34:19;;;;;;;6.30;1.63;;;14.50;90.00;;;;;;5009526;28;20278;-72
2023/08/07 04:36:45;;;;;;;8.20;1.80;;;14.50;90.10;;;;;;5007272;28;20074;-73
2023/08/07 04:39:13;;;;;;;6.68;1.58;;;14.50;90.00;;;;;;4990212;28;20051;-73
2023/08/07 04:41:40;;;;;;;8.38;1.52;;;14.50;89.90;;;;;;4989120;28;20050;-72
2023/08/07 04:44:07;;;;;;;8.13;1.90;;;14.60;89.90;;;;;;5011458;28;20140;-72
2023/08/07 04:46:35;;;;;;;6.93;1.88;;;14.60;89.90;;;;;;5025760;28;20277;-72
2023/08/07 04:49:03;;;;;;;9.13;1.73;;;14.60;89.80;;;;;;5004271;28;20086;-72
2023/08/07 04:51:31;;;;;;;7.60;1.60;;;14.60;89.80;;;;;;4994647;28;20133;-72
2023/08/07 04:53:58;;;;;;;5.82;1.50;;;14.60;89.90;;;;;;5008788;28;20057;-72
2023/08/07 04:56:24;;;;;;;8.03;1.50;;;14.60;89.80;;;;;;5005858;28;20566;-73
2023/08/07 04:58:51;;;;;;;7.15;1.60;;;14.60;89.70;;;;;;5005410;28;20687;-72
2023/08/07 05:01:18;;;;;;;7.03;1.85;;;14.60;89.80;;;;;;5001161;28;20051;-72
2023/08/07 05:03:47;;;;;;;5.55;1.10;;;14.60;89.90;;;;;;5002411;28;20055;-73
2023/08/07 05:06:14;;;;;;;6.25;1.20;;;14.60;90.00;;;;;;5008833;28;20054;-72
2023/08/07 05:08:41;;;;;;;5.60;1.53;;;14.60;90.00;;;;;;5006274;28;20047;-72
2023/08/07 05:11:08;;;;;;;5.63;1.80;;;14.60;90.10;;;;;;5007808;28;20285;-72
2023/08/07 05:13:35;;;;;;;7.38;1.65;;;14.60;90.00;;;;;;5004861;28;20047;-72
2023/08/07 05:16:02;;;;;;;6.05;1.70;;;14.70;90.00;;;;;;5004296;28;20081;-72
2023/08/07 05:18:29;;;;;;;5.05;1.17;;;14.70;89.90;;;;;;5006832;28;20046;-72
2023/08/07 05:20:58;;;;;;;3.30;0.80;;;14.70;89.80;;;;;;4999569;28;20536;-72
2023/08/07 05:23:24;;;;;;;4.68;0.80;;;14.60;89.70;;;;;;5009911;28;20290;-72
2023/08/07 05:25:51;;;;;;;5.18;1.35;;;14.60;89.70;;;;;;5009414;28;20133;-72
2023/08/07 05:28:18;;;;;;;5.75;0.98;;;14.60;89.70;;;;;;5008283;28;20511;-73
2023/08/07 05:30:46;;;;;;;8.13;1.67;;;14.60;89.70;;;;;;5007228;28;20051;-72
2023/08/07 05:33:14;;;;;;;5.40;1.43;;;14.70;89.50;;;;;;5009433;28;20221;-74
2023/08/07 05:35:41;;;;;;;6.72;1.52;;;14.60;89.50;;;;;;5009473;28;20285;-73
2023/08/07 05:38:09;;;;;;;6.95;1.20;;;14.60;89.50;;;;;;5009764;28;20168;-72
2023/08/07 05:40:36;;;;;;;5.45;1.40;;;14.70;89.50;;;;;;4993713;28;20047;-72
2023/08/07 05:43:03;;;;;;;5.30;1.30;;;14.60;89.60;;;;;;4988606;28;20142;-73
2023/08/07 05:45:30;;;;;;;6.93;1.77;;;14.60;89.40;;;;;;4988787;28;20047;-72
2023/08/07 05:47:57;;;;;;;5.00;1.15;;;14.60;89.40;;;;;;4992220;28;20405;-73
2023/08/07 05:50:24;;;;;;;7.47;1.80;;;14.60;89.30;;;;;;4998624;28;20599;-74
2023/08/07 05:52:51;;;;;;;7.65;1.60;;;14.60;89.40;;;;;;4987694;28;20520;-72
2023/08/07 05:55:19;;;;;;;8.07;1.65;;;14.60;89.30;;;;;;5008125;28;20058;-72
2023/08/07 05:57:46;;;;;;;7.23;1.43;;;14.60;89.30;;;;;;5004903;28;20074;-73
2023/08/07 06:00:17;;;;;;;7.25;1.48;;;14.60;89.30;;;;;;5001006;28;20717;-74
2023/08/07 06:02:44;;;;;;;6.05;1.50;;;14.70;89.20;;;;;;5005297;28;20085;-73
2023/08/07 06:05:13;;;;;;;9.25;2.15;;;14.70;89.20;;;;;;5001523;28;20567;-73
2023/08/07 06:07:40;;;;;;;10.25;1.90;;;14.70;89.20;;;;;;5007023;28;20137;-73
2023/08/07 06:10:08;;;;;;;10.90;2.10;;;14.70;89.20;;;;;;5004314;28;20038;-72
2023/08/07 06:12:36;;;;;;;9.15;2.20;;;14.70;89.30;;;;;;5007932;28;20309;-73
2023/08/07 06:15:03;;;;;;;6.53;1.90;;;14.70;89.30;;;;;;4999358;28;20349;-73
2023/08/07 06:17:30;;;;;;;11.18;2.25;;;14.70;89.40;;;;;;5003809;28;20520;-72
2023/08/07 06:19:57;;;;;;;9.52;1.60;;;14.70;89.70;;;;;;5001792;28;20058;-72
2023/08/07 06:22:24;;;;;;;8.30;2.20;;;14.80;89.80;;;;;;5005515;28;20302;-72
2023/08/07 06:24:51;;;;;;;10.65;2.35;;;14.80;89.80;;;;;;5005126;28;20377;-72
2023/08/07 06:27:18;;;;;;;11.07;2.78;;;14.90;89.80;;;;;;5005360;28;20056;-71
2023/08/07 06:29:47;;;;;;;10.32;2.20;;;14.90;90.00;;;;;;5006743;28;20138;-72
2023/08/07 06:32:14;;;;;;;8.50;2.08;;;14.90;89.90;;;;;;5006603;28;20054;-72
2023/08/07 06:34:41;;;;;;;8.13;1.90;;;14.90;89.60;;;;;;5006145;28;20050;-72
2023/08/07 06:37:08;;;;;;;6.13;1.25;;;15.00;89.50;;;;;;5003127;28;20282;-72
2023/08/07 06:39:35;;;;;;;4.78;0.80;;;14.90;88.20;;;;;;5003936;28;20566;-72
2023/08/07 06:42:02;;;;;;;3.30;0.55;;;14.90;87.20;;;;;;5000325;28;20789;-72
2023/08/07 06:44:34;;;;;;;6.35;1.33;;;14.90;86.50;;;;;;5006633;28;20054;-71
2023/08/07 06:47:03;;;;;;;4.43;1.20;;;14.80;86.40;;;;;;5000934;28;20498;-72
2023/08/07 06:49:31;;;;;;;7.43;1.30;;;14.80;86.00;;;;;;5007058;28;21112;-72
2023/08/07 06:51:58;;;;;;;3.35;0.63;;;14.70;85.80;;;;;;5003734;28;20065;-71
2023/08/07 06:54:25;;;;;;;6.10;1.30;;;14.60;86.00;;;;;;5001097;28;20062;-72
2023/08/07 06:56:52;;;;;;;7.25;1.40;;;14.60;86.40;;;;;;5003043;28;20085;-72
2023/08/07 06:59:19;;;;;;;8.17;1.67;;;14.60;86.40;;;;;;5002747;28;20041;-72
2023/08/07 07:01:47;;;;;;;8.50;2.00;;;14.60;86.50;;;;;;5001078;28;20294;-72
2023/08/07 07:04:15;;;;;;;10.43;1.90;;;14.60;86.60;;;;;;5002303;28;20046;-72
2023/08/07 07:06:42;;;;;;;7.80;2.08;;;14.60;86.80;;;;;;5004408;28;20130;-73
2023/08/07 07:09:09;;;;;;;8.82;2.08;;;14.60;87.00;;;;;;5006291;28;20062;-73
2023/08/07 07:11:37;;;;;;;9.10;1.50;;;14.60;87.50;;;;;;5006195;28;20803;-72
2023/08/07 07:14:04;;;;;;;5.97;1.40;;;14.60;87.80;;;;;;4997881;28;20261;-71
2023/08/07 07:16:31;;;;;;;8.43;1.70;;;14.70;87.90;;;;;;5000006;28;20531;-72
2023/08/07 07:18:59;;;;;;;9.68;2.05;;;14.70;87.90;;;;;;5001198;28;20054;-72
2023/08/07 07:21:28;;;;;;;9.65;2.30;;;14.70;88.00;;;;;;5015814;28;20509;-72
2023/08/07 07:23:55;;;;;;;9.83;1.90;;;14.80;87.90;;;;;;5003321;28;20063;-72
2023/08/07 07:26:21;;;;;;;8.88;1.27;;;14.80;87.80;;;;;;5007891;28;20277;-72
2023/08/07 07:28:51;;;;;;;7.55;2.13;;;14.80;88.00;;;;;;4996631;28;20485;-72
2023/08/07 07:31:17;;;;;;;9.80;1.63;;;14.90;87.70;;;;;;5001560;28;20043;-72
2023/08/07 07:33:46;;;;;;;7.65;1.70;;;14.90;87.20;;;;;;5009592;28;20066;-72
2023/08/07 07:36:17;;;;;;;5.93;1.27;;;14.90;87.10;;;;;;5010492;28;20061;-73
2023/08/07 07:38:47;;;;;;;6.38;1.05;;;15.00;87.10;;;;;;4998999;28;20378;-72
2023/08/07 07:41:14;;;;;;;6.15;1.17;;;14.90;86.40;;;;;;5009883;28;20057;-72
2023/08/07 07:43:41;;;;;;;6.68;1.10;;;14.90;85.40;;;;;;5006523;28;20046;-72
2023/08/07 07:46:08;;;;;;;7.78;1.10;;;14.90;85.70;;;;;;5003598;28;20046;-71
2023/08/07 07:48:35;;;;;;;2.93;0.83;;;14.90;85.80;;;;;;5010527;28;20145;-71
2023/08/07 07:51:02;;;;;;;7.78;1.30;;;14.90;85.70;;;;;;5004233;28;20334;-71
2023/08/07 07:53:29;;;;;;;5.30;1.10;;;14.90;85.90;;;;;;4987750;28;20504;-71
2023/08/07 07:55:58;;;;;;;5.72;1.30;;;15.00;85.30;;;;;;5006662;28;20389;-71
2023/08/07 07:58:25;;;;;;;4.97;0.93;;;15.00;85.10;;;;;;5006497;28;20061;-72
2023/08/07 08:00:53;;;;;;;5.70;1.10;;;15.00;85.10;;;;;;5003493;28;20076;-72
2023/08/07 08:03:20;;;;;;;6.78;0.85;;;14.90;84.90;;;;;;5006591;28;20274;-72
2023/08/07 08:05:49;;;;;;;6.47;0.82;;;14.90;85.20;;;;;;5007112;28;20520;-71
2023/08/07 08:08:16;;;;;;;3.50;0.50;;;14.80;85.30;;;;;;4991465;28;20049;-72
2023/08/07 08:10:44;;;;;;;4.03;0.50;;;14.80;85.20;;;;;;5007927;28;20663;-72
2023/08/07 08:13:12;;;;;;;3.23;0.60;;;14.80;85.40;;;;;;5007359;28;20749;-72
2023/08/07 08:15:39;;;;;;;4.40;0.90;;;14.80;85.30;;;;;;4992754;28;20262;-72
2023/08/07 08:18:06;;;;;;;5.00;1.05;;;14.80;85.40;;;;;;5006110;28;20580;-72
2023/08/07 08:20:33;;;;;;;5.25;1.00;;;14.80;85.70;;;;;;5008969;28;20250;-72
2023/08/07 08:23:00;;;;;;;4.55;1.00;;;14.80;85.50;;;;;;5005196;28;20505;-71
2023/08/07 08:25:27;;;;;;;3.57;0.80;;;14.80;85.10;;;;;;5009221;28;20085;-72
2023/08/07 08:27:54;;;;;;;7.75;1.20;;;14.80;85.50;;;;;;5004371;28;20791;-71
2023/08/07 08:30:22;;;;;;;5.50;1.60;;;14.80;85.70;;;;;;5009831;28;20524;-72
2023/08/07 08:32:49;;;;;;;7.18;1.65;;;14.90;85.90;;;;;;5007808;28;20078;-74
2023/08/07 08:35:16;;;;;;;8.48;1.60;;;14.90;85.80;;;;;;5008371;28;20069;-74
2023/08/07 08:37:43;;;;;;;7.00;1.13;;;15.00;85.50;;;;;;5006196;28;20475;-74
2023/08/07 08:40:16;;;;;;;4.65;1.27;;;15.00;85.50;;;;;;5007624;28;20376;-76
2023/08/07 08:42:44;;;;;;;6.35;1.15;;;15.00;84.80;;;;;;4989121;28;20051;-75
2023/08/07 08:45:13;;;;;;;5.10;0.75;;;14.90;84.80;;;;;;5007691;28;20065;-77
2023/08/07 08:47:43;;;;;;;3.80;0.70;;;14.90;83.90;;;;;;5006776;28;20042;-76
2023/08/07 08:50:12;;;;;;;10.07;1.57;;;14.80;84.10;;;;;;5008286;28;20060;-77
2023/08/07 08:52:42;;;;;;;7.22;2.00;;;14.80;84.80;;;;;;5008145;28;20259;-76
2023/08/07 08:55:09;;;;;;;8.85;1.55;;;14.80;85.30;;;;;;5004148;28;20254;-75
2023/08/07 08:57:37;;;;;;;9.70;2.42;;;14.90;85.70;;;;;;5002740;28;20616;-76
2023/08/07 09:00:17;;;;;;;10.32;1.70;;;14.90;85.80;;;;;;4999748;28;20059;-75
2023/08/07 09:02:47;;;;;;;8.13;1.70;;;14.90;85.60;;;;;;5006324;28;20105;-75
2023/08/07 09:05:15;;;;;;;5.90;1.13;;;14.90;85.50;;;;;;5003817;28;20819;-76
2023/08/07 09:07:42;;;;;;;6.97;1.73;;;14.90;85.40;;;;;;5006363;28;20769;-76
2023/08/07 09:10:12;;;;;;;4.68;1.42;;;15.00;85.40;;;;;;5003658;28;20607;-76
2023/08/07 09:12:42;;;;;;;7.35;1.42;;;15.00;85.50;;;;;;4998969;28;20684;-76
2023/08/07 09:15:12;;;;;;;8.53;2.13;;;15.00;85.50;;;;;;5003774;28;20580;-76
2023/08/07 09:17:41;;;;;;;8.43;1.77;;;15.00;84.60;;;;;;5006277;28;20269;-76
2023/08/07 09:20:13;;;;;;;8.25;1.60;;;15.20;84.10;;;;;;5022914;28;20528;-76
2023/08/07 09:22:41;;;;;;;6.80;1.50;;;15.20;83.80;;;;;;5002453;28;20061;-76
2023/08/07 09:25:09;;;;;;;3.63;0.73;;;15.30;83.20;;;;;;5003829;28;20050;-78
2023/08/07 09:27:38;;;;;;;7.03;1.77;;;15.30;81.50;;;;;;5004637;28;20050;-76
2023/08/07 09:30:08;;;;;;;5.50;1.55;;;15.40;80.90;;;;;;5009332;28;20388;-76
2023/08/07 09:32:35;;;;;;;5.50;1.58;;;15.50;78.80;;;;;;5003834;28;20050;-76
2023/08/07 09:35:04;;;;;;;5.70;0.98;;;15.50;75.20;;;;;;5007392;28;20475;-75
2023/08/07 09:37:32;;;;;;;5.20;1.13;;;15.50;75.70;;;;;;5006322;28;20054;-75
2023/08/07 09:40:01;;;;;;;5.93;1.10;;;15.60;75.70;;;;;;5005333;28;20141;-76
2023/08/07 09:42:32;;;;;;;3.60;1.27;;;15.60;75.50;;;;;;4991185;28;20628;-76
2023/08/07 09:45:00;;;;;;;10.63;1.80;;;15.60;74.40;;;;;;5007434;28;20054;-76
2023/08/07 09:47:28;;;;;;;4.03;0.65;;;15.70;73.30;;;;;;5008225;28;20477;-76
2023/08/07 09:49:56;;;;;;;4.25;1.02;;;15.80;72.60;;;;;;5009658;28;20090;-76
2023/08/07 09:52:25;;;;;;;4.43;1.20;;;15.80;73.40;;;;;;5007423;28;20046;-76
2023/08/07 09:54:57;;;;;;;6.97;1.30;;;15.80;70.50;;;;;;5006390;28;20328;-76
2023/08/07 09:57:23;;;;;;;4.50;0.82;;;15.80;70.00;;;;;;5007312;28;20337;-75
2023/08/07 09:59:51;;;;;;;9.52;1.90;;;15.90;69.80;;;;;;4992088;28;20368;-76
2023/08/07 10:02:20;;;;;;;9.23;1.63;;;16.00;71.00;;;;;;5001157;28;20046;-76
2023/08/07 10:04:48;;;;;;;7.20;1.40;;;16.00;70.30;;;;;;5005003;28;20117;-76
2023/08/07 10:07:15;;;;;;;7.70;1.58;;;16.10;67.60;;;;;;5006450;28;20230;-77
2023/08/07 10:09:43;;;;;;;5.90;1.23;;;16.10;66.60;;;;;;5002888;28;20055;-76
2023/08/07 10:12:13;;;;;;;4.22;1.10;;;16.10;68.20;;;;;;4994772;28;20054;-73
2023/08/07 10:14:42;;;;;;;7.20;1.67;;;16.10;66.70;;;;;;5000118;28;20065;-77
2023/08/07 10:17:09;;;;;;;3.97;1.17;;;16.10;66.40;;;;;;5004764;28;20046;-77
2023/08/07 10:19:38;;;;;;;5.22;1.55;;;16.10;66.80;;;;;;5006466;28;20282;-76
2023/08/07 10:22:07;;;;;;;4.03;1.00;;;16.10;66.00;;;;;;5001904;28;20086;-76
2023/08/07 10:24:36;;;;;;;2.63;0.88;;;16.10;67.00;;;;;;5005868;28;20070;-74
2023/08/07 10:27:04;;;;;;;4.47;1.27;;;16.20;68.80;;;;;;5002103;28;20565;-75
2023/08/07 10:29:33;;;;;;;8.63;1.20;;;16.20;67.80;;;;;;5018452;28;20084;-75
2023/08/07 10:32:01;;;;;;;5.82;1.27;;;16.30;68.00;;;;;;4997536;28;20273;-75
2023/08/07 10:34:30;;;;;;;5.03;1.02;;;16.30;67.30;;;;;;5009019;28;20058;-74
2023/08/07 10:36:57;;;;;;;6.30;1.20;;;16.40;65.80;;;;;;5002033;28;20055;-76
2023/08/07 10:39:24;;;;;;;4.35;0.93;;;16.30;65.60;;;;;;4992013;28;20055;-75
2023/08/07 10:41:54;;;;;;;4.50;1.40;;;16.30;65.70;;;;;;5004126;28;20211;-74
2023/08/07 10:44:23;;;;;;;6.13;1.27;;;16.30;66.60;;;;;;5004262;28;20262;-74
2023/08/07 10:46:54;;;;;;;4.80;1.15;;;16.30;65.60;;;;;;5003059;28;20050;-75
2023/08/07 10:49:35;;;;;;;6.15;1.73;;;16.30;67.20;;;;;;5000955;28;20193;-76
2023/08/07 10:52:10;;;;;;;5.63;1.27;;;16.40;66.10;;;;;;4995788;28;20046;-74
2023/08/07 10:54:44;;;;;;;6.90;1.50;;;16.40;65.20;;;;;;5006773;28;20646;-75
2023/08/07 10:57:13;;;;;;;3.67;0.90;;;16.40;65.00;;;;;;5003488;28;20250;-77
2023/08/07 10:59:45;;;;;;;5.95;1.50;;;16.40;65.40;;;;;;4982979;28;20043;-75
2023/08/07 11:02:23;;;;;;;7.15;1.52;;;16.40;66.00;;;;;;5007299;28;20057;-76
2023/08/07 11:04:51;;;;;;;3.95;0.98;;;16.40;65.90;;;;;;4989554;28;20129;-75
2023/08/07 11:07:24;;;;;;;9.53;1.57;;;16.40;65.90;;;;;;4986007;28;20057;-75
2023/08/07 11:09:51;;;;;;;7.15;1.50;;;16.40;66.70;;;;;;5003667;28;20764;-75
2023/08/07 11:12:20;;;;;;;6.00;1.40;;;16.30;66.90;;;;;;4999256;28;20057;-76
2023/08/07 11:14:47;;;;;;;5.75;1.20;;;16.30;68.00;;;;;;5006400;28;20072;-75
2023/08/07 11:17:17;;;;;;;6.82;1.85;;;16.30;67.00;;;;;;5007208;28;20074;-76
2023/08/07 11:19:44;;;;;;;5.93;1.37;;;16.20;67.70;;;;;;4996897;28;20061;-75
2023/08/07 11:22:12;;;;;;;9.35;1.45;;;16.30;68.90;;;;;;4989154;28;20254;-76
2023/08/07 11:24:39;;;;;;;9.68;1.52;;;16.30;69.00;;;;;;4999086;28;20616;-76
2023/08/07 11:27:09;;;;;;;5.07;1.33;;;16.30;65.90;;;;;;4995535;28;20050;-75
2023/08/07 11:29:36;;;;;;;3.28;0.73;;;16.40;66.10;;;;;;4982234;28;20046;-74
2023/08/07 11:32:04;;;;;;;4.97;0.93;;;16.40;65.60;;;;;;4999365;28;20493;-74
2023/08/07 11:34:32;;;;;;;6.25;0.98;;;16.40;64.10;;;;;;4999584;28;20278;-74
2023/08/07 11:37:00;;;;;;;6.90;1.25;;;16.40;64.70;;;;;;4994536;28;20054;-75
2023/08/07 11:39:28;;;;;;;5.03;0.90;;;16.40;65.00;;;;;;5003811;28;20050;-75
2023/08/07 11:41:55;;;;;;;4.70;0.80;;;16.40;65.10;;;;;;5022550;28;20137;-75
2023/08/07 11:44:24;;;;;;;4.10;0.77;;;16.40;64.20;;;;;;4980323;28;20061;-78
2023/08/07 11:46:51;;;;;;;4.53;1.00;;;16.40;64.00;;;;;;5000184;28;20273;-76
2023/08/07 11:49:19;;;;;;;4.38;1.25;;;16.50;65.30;;;;;;5004112;28;20992;-76
2023/08/07 11:51:47;;;;;;;4.32;1.20;;;16.50;63.40;;;;;;5003511;28;20060;-75
2023/08/07 11:54:15;;;;;;;4.65;0.85;;;16.50;63.10;;;;;;4996685;28;20047;-74
2023/08/07 11:56:43;;;;;;;5.03;0.77;;;16.50;64.30;;;;;;5004889;28;20054;-75
2023/08/07 11:59:10;;;;;;;6.43;1.25;;;16.60;64.80;;;;;;5007413;28;20439;-75
2023/08/07 12:01:40;;;;;;;5.15;0.70;;;16.60;64.60;;;;;;5023091;28;20061;-76
2023/08/07 12:04:11;;;;;;;6.05;1.10;;;16.70;64.10;;;;;;5005634;28;20062;-76
2023/08/07 12:06:39;;;;;;;2.95;0.75;;;16.70;64.00;;;;;;5003509;28;20081;-74
2023/08/07 12:09:12;;;;;;;4.83;1.20;;;16.70;63.70;;;;;;5002126;28;20058;-75
2023/08/07 12:11:39;;;;;;;4.60;1.10;;;16.70;64.70;;;;;;4980129;28;20361;-74
2023/08/07 12:14:06;;;;;;;8.93;1.50;;;16.70;64.70;;;;;;5007233;28;20484;-75
2023/08/07 12:16:34;;;;;;;4.45;1.00;;;16.80;64.50;;;;;;4996763;28;20129;-74
2023/08/07 12:19:01;;;;;;;5.70;1.13;;;16.80;65.40;;;;;;5001231;28;20055;-74
2023/08/07 12:21:29;;;;;;;4.23;1.13;;;16.90;64.50;;;;;;5003137;28;20709;-74
2023/08/07 12:23:57;;;;;;;7.00;1.10;;;16.90;63.80;;;;;;5005770;28;20755;-75
2023/08/07 12:26:25;;;;;;;5.88;1.25;;;16.90;64.20;;;;;;5003314;28;20720;-74
2023/08/07 12:28:53;;;;;;;6.57;1.20;;;16.90;64.10;;;;;;5005565;28;20280;-75
2023/08/07 12:31:21;;;;;;;4.57;1.05;;;16.90;64.40;;;;;;4999918;28;20051;-74
2023/08/07 12:33:48;;;;;;;5.43;1.53;;;16.90;64.00;;;;;;5006722;28;20050;-75
2023/08/07 12:36:15;;;;;;;5.97;1.23;;;16.80;65.40;;;;;;5002169;28;20985;-76
2023/08/07 12:38:42;;;;;;;5.40;0.90;;;16.80;65.60;;;;;;5008978;28;20082;-74
2023/08/07 12:41:09;;;;;;;5.30;1.20;;;16.70;66.10;;;;;;5006513;28;20780;-73
2023/08/07 12:43:38;;;;;;;5.35;1.00;;;16.70;66.60;;;;;;5005100;28;20062;-74
2023/08/07 12:46:05;;;;;;;6.07;1.00;;;16.60;66.70;;;;;;5003689;28;20448;-73
2023/08/07 12:48:32;;;;;;;4.90;0.90;;;16.50;66.30;;;;;;5005349;28;20285;-73
2023/08/07 12:50:59;;;;;;;4.28;1.15;;;16.40;67.50;;;;;;4999708;28;20065;-73
2023/08/07 12:53:26;;;;;;;6.80;1.40;;;16.40;67.10;;;;;;5000965;28;20047;-74